Time;durP1;ratioP1;P1;durP2;ratioP2;P2;SDS_P1;SDS_P2;PMS_P1;PMS_P2;Temp;Humidity;BMP_temperature;BMP_pressure;BME280_temperature;BME280_humidity;BME280_pressure;Samples;Min_cycle;Max_cycle;Signal;HPM_P1;HPM_P2
2023/11/02 00:02:36;;;;;;;3.00;1.33;;;10.90;99.90;;;;;;5040375;28;20488;-84
2023/11/02 00:05:03;;;;;;;2.80;1.20;;;10.90;1.00;;;;;;5054154;28;20440;-85
2023/11/02 00:07:30;;;;;;;3.80;1.10;;;10.90;1.00;;;;;;5050317;28;20440;-83
2023/11/02 00:09:57;;;;;;;4.30;1.67;;;11.00;1.00;;;;;;5061489;28;20977;-84
2023/11/02 00:12:28;;;;;;;2.17;1.40;;;11.00;1.00;;;;;;5040351;28;20455;-84
2023/11/02 00:14:54;;;;;;;6.47;1.10;;;11.00;99.90;;;;;;5057771;28;20449;-85
2023/11/02 00:17:38;;;;;;;7.90;1.50;;;11.10;99.90;;;;;;5055643;28;20446;-84
2023/11/02 00:20:07;;;;;;;2.97;1.33;;;11.00;99.90;;;;;;5058966;28;20440;-85
2023/11/02 00:22:38;;;;;;;4.53;1.20;;;11.10;99.90;;;;;;5067843;28;20468;-85
2023/11/02 00:25:05;;;;;;;5.67;1.50;;;11.10;99.90;;;;;;5062816;28;20435;-84
2023/11/02 00:27:34;;;;;;;2.43;1.00;;;11.10;99.90;;;;;;5060768;28;20436;-85
2023/11/02 00:30:00;;;;;;;2.20;1.57;;;11.10;99.90;;;;;;5059031;28;20476;-85
2023/11/02 00:32:25;;;;;;;5.10;1.27;;;11.10;99.90;;;;;;5069300;28;20458;-83
2023/11/02 00:34:52;;;;;;;4.47;2.37;;;11.10;99.90;;;;;;5060818;28;20578;-85
2023/11/02 00:37:17;;;;;;;2.20;1.10;;;11.10;99.90;;;;;;5046030;28;20182;-86
2023/11/02 00:39:43;;;;;;;2.80;1.10;;;11.10;99.90;;;;;;5070241;28;20471;-85
2023/11/02 00:42:08;;;;;;;4.53;1.53;;;11.10;99.90;;;;;;5072120;28;20285;-85
2023/11/02 00:44:34;;;;;;;5.43;1.43;;;11.20;99.90;;;;;;5072256;28;20214;-83
2023/11/02 00:47:00;;;;;;;2.40;1.00;;;11.20;99.90;;;;;;5067615;28;20213;-84
2023/11/02 00:49:35;;;;;;;2.60;1.70;;;11.20;99.90;;;;;;5064678;28;20714;-84
2023/11/02 00:52:02;;;;;;;6.57;1.40;;;11.20;99.90;;;;;;5061212;28;20438;-84
2023/11/02 00:54:49;;;;;;;2.80;1.20;;;11.20;99.90;;;;;;5040321;28;20432;-85
2023/11/02 00:57:16;;;;;;;3.10;1.17;;;11.30;99.90;;;;;;5066053;28;20961;-84
2023/11/02 00:59:44;;;;;;;2.77;1.10;;;11.30;99.90;;;;;;5039676;28;20502;-85
2023/11/02 01:02:10;;;;;;;5.93;1.30;;;11.30;99.90;;;;;;5047431;28;20520;-85
2023/11/02 01:04:42;;;;;;;5.27;1.07;;;11.40;68.00;;;;;;5047231;28;20437;-83
2023/11/02 01:07:08;;;;;;;2.60;1.30;;;11.40;44.50;;;;;;5064224;28;20448;-84
2023/11/02 01:09:45;;;;;;;1.63;1.10;;;11.40;16.90;;;;;;5042233;28;20456;-85
2023/11/02 01:12:31;;;;;;;2.53;1.00;;;11.40;63.90;;;;;;5068685;28;20442;-84
2023/11/02 01:14:56;;;;;;;4.33;1.40;;;11.40;22.10;;;;;;5072339;28;20493;-85
2023/11/02 01:17:32;;;;;;;3.77;1.33;;;11.40;8.80;;;;;;5057829;28;20435;-84
2023/11/02 01:20:24;;;;;;;2.20;0.90;;;11.40;1.00;;;;;;5068058;28;20188;-84
2023/11/02 01:23:05;;;;;;;4.77;1.37;;;11.40;1.00;;;;;;5037130;28;20472;-85
2023/11/02 01:25:35;;;;;;;2.80;1.63;;;11.40;1.00;;;;;;5054384;28;20980;-83
2023/11/02 01:28:02;;;;;;;3.50;1.17;;;11.40;1.00;;;;;;5069511;28;20490;-84
2023/11/02 01:30:40;;;;;;;7.67;1.47;;;11.50;7.60;;;;;;5045933;28;20441;-85
2023/11/02 01:33:34;;;;;;;3.00;1.70;;;11.50;1.00;;;;;;5063096;28;20446;-84
2023/11/02 01:36:01;;;;;;;9.90;1.60;;;11.50;1.00;;;;;;5064091;28;20494;-85
2023/11/02 01:38:27;;;;;;;7.80;1.30;;;11.60;1.00;;;;;;5073319;28;20471;-85
2023/11/02 01:41:00;;;;;;;2.13;1.00;;;11.50;1.00;;;;;;5076122;28;21073;-85
2023/11/02 01:43:49;;;;;;;2.17;1.03;;;11.60;1.00;;;;;;5056358;28;20468;-85
2023/11/02 01:46:32;;;;;;;3.10;1.23;;;11.60;1.00;;;;;;5055597;28;20433;-85
2023/11/02 01:49:04;;;;;;;4.50;1.20;;;11.60;1.00;;;;;;5033589;28;20450;-85
2023/11/02 01:51:38;;;;;;;2.50;0.90;;;11.60;1.00;;;;;;5071079;28;20530;-85
2023/11/02 01:54:04;;;;;;;3.80;1.00;;;11.60;1.00;;;;;;5068451;28;20443;-85
2023/11/02 01:56:41;;;;;;;2.13;0.97;;;11.60;1.00;;;;;;5061759;28;20532;-86
2023/11/02 01:59:07;;;;;;;2.30;1.33;;;11.60;1.00;;;;;;5056701;28;20509;-85
2023/11/02 02:02:03;;;;;;;5.20;1.20;;;11.50;1.00;;;;;;5072095;28;20577;-85
2023/11/02 02:04:40;;;;;;;5.60;1.40;;;11.50;1.00;;;;;;5059069;28;20435;-86
2023/11/02 02:07:09;;;;;;;4.57;1.27;;;11.50;1.00;;;;;;5041612;28;20424;-85
2023/11/02 02:09:53;;;;;;;5.80;1.30;;;11.50;1.00;;;;;;5040782;28;20452;-84
2023/11/02 02:12:19;;;;;;;6.30;1.40;;;11.50;1.00;;;;;;5074914;28;20427;-86
2023/11/02 02:15:10;;;;;;;3.93;1.73;;;11.50;1.00;;;;;;5076173;28;20785;-86
2023/11/02 02:18:02;;;;;;;5.00;1.27;;;11.50;1.00;;;;;;5063847;28;20182;-86
2023/11/02 02:20:32;;;;;;;2.03;1.30;;;11.50;1.00;;;;;;5041538;28;20456;-85
2023/11/02 02:23:01;;;;;;;4.27;1.57;;;11.50;1.00;;;;;;5039443;28;20471;-86
2023/11/02 02:25:41;;;;;;;5.73;1.90;;;11.50;1.00;;;;;;5038197;28;20441;-86
2023/11/02 02:28:16;;;;;;;8.53;1.77;;;11.50;1.00;;;;;;5042732;28;20453;-86
2023/11/02 02:30:57;;;;;;;9.70;2.03;;;11.50;1.00;;;;;;5042070;28;20462;-86
2023/11/02 02:33:35;;;;;;;5.00;1.63;;;11.50;1.00;;;;;;5063915;28;20530;-86
2023/11/02 02:36:29;;;;;;;6.53;1.43;;;11.50;1.00;;;;;;5062076;28;20506;-86
2023/11/02 02:39:04;;;;;;;2.93;1.40;;;11.50;1.00;;;;;;5065188;28;20471;-86
2023/11/02 02:41:36;;;;;;;10.10;2.20;;;11.50;1.00;;;;;;5069536;28;20440;-86
2023/11/02 02:44:03;;;;;;;4.00;1.83;;;11.50;1.00;;;;;;5075559;28;20479;-86
2023/11/02 02:46:31;;;;;;;2.90;1.30;;;11.60;1.00;;;;;;5070734;28;20556;-86
2023/11/02 02:48:56;;;;;;;4.97;0.97;;;11.60;99.90;;;;;;5063973;28;20476;-86
2023/11/02 02:51:26;;;;;;;4.70;1.50;;;11.60;99.90;;;;;;5066819;28;20440;-86
2023/11/02 02:53:54;;;;;;;5.90;1.13;;;11.60;99.90;;;;;;5066689;28;20236;-86
2023/11/02 02:56:23;;;;;;;3.80;1.47;;;11.60;99.90;;;;;;5068997;28;20457;-87
2023/11/02 02:58:59;;;;;;;5.80;1.53;;;11.60;99.90;;;;;;5068179;28;21037;-86
2023/11/02 03:01:29;;;;;;;3.13;1.40;;;11.70;99.90;;;;;;5050051;28;20440;-86
2023/11/02 03:03:57;;;;;;;6.17;1.70;;;11.70;1.00;;;;;;5069602;28;20517;-85
2023/11/02 03:06:25;;;;;;;5.73;1.73;;;11.70;1.00;;;;;;5067874;28;20432;-85
2023/11/02 03:08:55;;;;;;;3.13;1.23;;;11.70;1.00;;;;;;5078465;28;20447;-87
2023/11/02 03:11:21;;;;;;;5.27;1.50;;;11.70;1.00;;;;;;5078374;28;20435;-86
2023/11/02 03:13:52;;;;;;;3.83;1.47;;;11.80;1.00;;;;;;5069081;28;20523;-86
2023/11/02 03:16:20;;;;;;;5.77;1.77;;;11.70;99.90;;;;;;5069251;28;20444;-85
2023/11/02 03:18:45;;;;;;;3.17;1.40;;;11.70;1.00;;;;;;5042266;28;20467;-86
2023/11/02 03:21:11;;;;;;;6.23;1.30;;;11.70;99.90;;;;;;5070518;28;20444;-87
2023/11/02 03:24:05;;;;;;;7.40;1.97;;;11.70;99.90;;;;;;5063373;28;20213;-85
2023/11/02 03:26:59;;;;;;;6.20;1.87;;;11.70;1.00;;;;;;5065224;28;20186;-85
2023/11/02 03:29:53;;;;;;;9.33;1.60;;;11.70;99.90;;;;;;5035786;28;20464;-87
2023/11/02 03:32:29;;;;;;;5.57;1.90;;;11.70;99.90;;;;;;5063690;28;20451;-88
2023/11/02 03:35:05;;;;;;;7.33;1.87;;;11.70;99.90;;;;;;5047615;28;20444;-87
2023/11/02 03:37:54;;;;;;;6.13;1.60;;;11.70;1.00;;;;;;5059575;28;20446;-85
2023/11/02 03:40:26;;;;;;;7.00;2.40;;;11.70;99.90;;;;;;5067737;28;20443;-84
2023/11/02 03:43:14;;;;;;;4.07;1.60;;;11.80;99.90;;;;;;5040553;28;20464;-85
2023/11/02 03:45:59;;;;;;;4.43;1.40;;;11.80;99.90;;;;;;5043205;28;20437;-85
2023/11/02 03:48:45;;;;;;;6.60;2.10;;;11.80;1.00;;;;;;5060754;28;20451;-86
2023/11/02 03:51:32;;;;;;;10.77;2.93;;;11.80;53.90;;;;;;5052609;28;20446;-85
2023/11/02 03:54:35;;;;;;;5.40;1.70;;;11.80;1.00;;;;;;5064153;28;20507;-85
2023/11/02 03:57:22;;;;;;;8.13;1.30;;;11.80;99.90;;;;;;5062903;28;20439;-85
2023/11/02 04:00:20;;;;;;;9.90;2.00;;;11.80;1.00;;;;;;5039637;28;20459;-86
2023/11/02 04:02:52;;;;;;;4.10;1.70;;;11.90;99.90;;;;;;5055708;28;20464;-85
2023/11/02 04:05:21;;;;;;;7.53;1.90;;;11.90;99.90;;;;;;5066132;28;20455;-86
2023/11/02 04:08:15;;;;;;;7.23;2.20;;;11.90;99.90;;;;;;5056338;28;20460;-84
2023/11/02 04:10:59;;;;;;;4.57;1.60;;;11.90;99.90;;;;;;5047222;28;20464;-86
2023/11/02 04:13:34;;;;;;;5.17;2.10;;;11.90;99.90;;;;;;5064998;28;20440;-85
2023/11/02 04:15:59;;;;;;;3.57;1.87;;;11.90;99.90;;;;;;5057461;28;20572;-84
2023/11/02 04:18:25;;;;;;;6.60;1.57;;;11.90;99.90;;;;;;5058829;28;20933;-85
2023/11/02 04:20:52;;;;;;;4.17;1.27;;;11.90;10.80;;;;;;5064951;28;20212;-85
2023/11/02 04:23:20;;;;;;;2.63;1.20;;;11.90;99.90;;;;;;5055505;28;20205;-85
2023/11/02 04:25:45;;;;;;;3.20;1.40;;;11.90;99.90;;;;;;5058296;28;20820;-84
2023/11/02 04:28:11;;;;;;;2.63;1.37;;;11.70;1.00;;;;;;5040020;28;20444;-84
2023/11/02 04:30:36;;;;;;;6.40;1.20;;;11.70;1.00;;;;;;5071899;28;20550;-86
2023/11/02 04:33:03;;;;;;;4.73;1.60;;;11.70;30.30;;;;;;5065144;28;20613;-84
2023/11/02 04:35:28;;;;;;;1.87;1.17;;;11.70;99.90;;;;;;5055912;28;20274;-86
2023/11/02 04:38:07;;;;;;;5.33;1.40;;;11.70;1.00;;;;;;5064254;28;20560;-86
2023/11/02 04:40:33;;;;;;;4.10;1.47;;;11.80;96.80;;;;;;5062914;28;20190;-84
2023/11/02 04:43:00;;;;;;;2.23;1.33;;;11.90;4.80;;;;;;5036354;28;20460;-85
2023/11/02 04:45:26;;;;;;;5.70;1.13;;;11.90;56.20;;;;;;5038286;28;20973;-85
2023/11/02 04:47:52;;;;;;;4.50;1.40;;;11.90;24.30;;;;;;5043045;28;20455;-85
2023/11/02 04:50:20;;;;;;;3.33;1.40;;;11.90;1.00;;;;;;5063306;28;20436;-83
2023/11/02 04:52:45;;;;;;;3.50;1.37;;;11.90;1.00;;;;;;5057659;28;20186;-86
2023/11/02 04:55:12;;;;;;;1.80;0.90;;;11.90;1.00;;;;;;5059131;28;20440;-84
2023/11/02 04:57:38;;;;;;;4.97;1.27;;;12.00;1.00;;;;;;5061884;28;20186;-85
2023/11/02 05:00:04;;;;;;;4.40;1.10;;;12.00;1.00;;;;;;5056112;28;20444;-84
2023/11/02 05:02:30;;;;;;;4.00;1.70;;;12.00;99.90;;;;;;5056020;28;20202;-85
2023/11/02 05:04:56;;;;;;;3.87;1.30;;;12.00;99.90;;;;;;5056654;28;20440;-86
2023/11/02 05:07:21;;;;;;;2.23;1.20;;;12.00;1.00;;;;;;5062585;28;20439;-86
2023/11/02 05:09:47;;;;;;;3.20;1.43;;;12.00;1.00;;;;;;5067812;28;20186;-87
2023/11/02 05:12:12;;;;;;;3.30;1.50;;;12.00;1.00;;;;;;5071689;28;20272;-87
2023/11/02 05:14:38;;;;;;;2.80;1.20;;;12.00;1.00;;;;;;5067631;28;20186;-86
2023/11/02 05:17:03;;;;;;;3.77;1.43;;;12.00;49.30;;;;;;5058890;28;20301;-85
2023/11/02 05:19:29;;;;;;;5.03;1.17;;;12.00;99.90;;;;;;5058640;28;20573;-85
2023/11/02 05:21:54;;;;;;;3.47;1.43;;;12.00;99.90;;;;;;5074476;28;20189;-87
2023/11/02 05:24:20;;;;;;;2.70;1.20;;;12.00;99.90;;;;;;5069737;28;20584;-85
2023/11/02 05:26:45;;;;;;;2.50;0.97;;;12.00;99.90;;;;;;5066822;28;20178;-86
2023/11/02 05:29:11;;;;;;;3.60;1.20;;;12.00;99.90;;;;;;5079266;28;20259;-87
2023/11/02 05:31:36;;;;;;;3.73;1.00;;;12.00;99.90;;;;;;5077884;28;20556;-83
2023/11/02 05:34:02;;;;;;;4.63;1.20;;;12.10;1.00;;;;;;5056792;28;20221;-85
2023/11/02 05:36:27;;;;;;;2.13;1.20;;;12.10;99.90;;;;;;5064809;28;20174;-87
2023/11/02 05:38:53;;;;;;;3.23;0.90;;;12.10;99.90;;;;;;5042851;28;20490;-86
2023/11/02 05:41:19;;;;;;;4.40;1.23;;;12.10;99.90;;;;;;5045820;28;20196;-86
2023/11/02 05:43:44;;;;;;;3.57;1.13;;;12.10;1.00;;;;;;5075222;28;20206;-87
2023/11/02 05:46:10;;;;;;;1.67;1.00;;;12.20;1.00;;;;;;5038520;28;20193;-87
2023/11/02 05:48:36;;;;;;;2.57;1.10;;;12.20;1.00;;;;;;5068131;28;20205;-85
2023/11/02 05:51:02;;;;;;;5.53;1.23;;;12.20;1.00;;;;;;5078539;28;20440;-87
2023/11/02 05:53:28;;;;;;;2.33;1.30;;;12.20;1.00;;;;;;5066229;28;20217;-86
2023/11/02 05:55:53;;;;;;;1.90;0.90;;;12.20;1.00;;;;;;5064608;28;20436;-86
2023/11/02 05:58:19;;;;;;;1.47;0.80;;;12.30;1.00;;;;;;5064523;28;20214;-86
2023/11/02 06:00:45;;;;;;;1.47;0.97;;;12.30;99.90;;;;;;5045841;28;20189;-87
2023/11/02 06:03:11;;;;;;;1.30;0.77;;;12.30;99.90;;;;;;5075155;28;20832;-85
2023/11/02 06:05:36;;;;;;;1.60;1.00;;;12.30;99.90;;;;;;5070771;28;20192;-88
2023/11/02 06:08:02;;;;;;;3.10;1.00;;;12.20;99.90;;;;;;5072411;28;20280;-88
2023/11/02 06:10:27;;;;;;;1.73;0.83;;;12.30;99.90;;;;;;5065008;28;20181;-86
2023/11/02 06:12:53;;;;;;;3.57;0.90;;;12.30;99.90;;;;;;5069414;28;20643;-86
2023/11/02 06:15:19;;;;;;;1.67;0.90;;;12.30;99.90;;;;;;5071435;28;20181;-87
2023/11/02 06:17:44;;;;;;;3.23;1.00;;;12.30;1.00;;;;;;5075685;28;20466;-85
2023/11/02 06:20:10;;;;;;;3.17;1.10;;;12.30;1.00;;;;;;5067556;28;20185;-85
2023/11/02 06:22:36;;;;;;;3.83;1.00;;;12.40;99.90;;;;;;5066219;28;20208;-86
2023/11/02 06:25:02;;;;;;;1.67;1.03;;;12.40;99.90;;;;;;5063631;28;20185;-86
2023/11/02 06:27:27;;;;;;;1.53;0.90;;;12.50;1.00;;;;;;5053608;28;20177;-88
2023/11/02 06:29:54;;;;;;;2.07;1.37;;;12.60;1.00;;;;;;5059603;28;20429;-87
2023/11/02 06:32:20;;;;;;;3.47;1.20;;;12.60;1.00;;;;;;5062742;28;20186;-86
2023/11/02 06:34:45;;;;;;;2.87;1.30;;;12.70;99.90;;;;;;5053802;28;20443;-87
2023/11/02 06:37:13;;;;;;;3.30;1.30;;;12.80;99.90;;;;;;5056868;28;20957;-83
2023/11/02 06:39:38;;;;;;;2.57;1.00;;;12.80;99.90;;;;;;5058140;28;20201;-85
2023/11/02 06:42:05;;;;;;;1.27;0.87;;;12.90;99.90;;;;;;5037235;28;20436;-84
2023/11/02 06:44:30;;;;;;;1.23;1.07;;;12.90;99.90;;;;;;5050694;28;20182;-86
2023/11/02 06:46:56;;;;;;;2.50;0.70;;;12.90;99.90;;;;;;5055166;28;20424;-85
2023/11/02 06:49:22;;;;;;;4.50;0.80;;;12.90;99.90;;;;;;5055698;28;20202;-85
2023/11/02 06:51:47;;;;;;;2.03;0.83;;;13.00;1.00;;;;;;5038064;28;20189;-85
2023/11/02 06:54:13;;;;;;;4.80;1.40;;;13.00;1.00;;;;;;5037467;28;20201;-86
2023/11/02 06:56:39;;;;;;;2.13;0.83;;;13.00;1.00;;;;;;5050520;28;20266;-85
2023/11/02 06:59:05;;;;;;;1.77;1.00;;;13.10;99.90;;;;;;5035800;28;20206;-86
2023/11/02 07:01:31;;;;;;;1.40;0.77;;;13.00;1.00;;;;;;5054397;28;20471;-86
2023/11/02 07:03:58;;;;;;;2.37;0.93;;;13.10;1.00;;;;;;5046088;28;20488;-86
2023/11/02 07:06:23;;;;;;;3.53;1.10;;;13.20;99.90;;;;;;5052570;28;20434;-87
2023/11/02 07:08:50;;;;;;;3.97;1.10;;;13.30;1.00;;;;;;5036026;28;20448;-86
2023/11/02 07:11:15;;;;;;;1.50;0.90;;;13.40;1.00;;;;;;5046150;28;20220;-85
2023/11/02 07:13:59;;;;;;;2.17;0.80;;;13.50;99.90;;;;;;5053192;28;20440;-85
2023/11/02 07:16:24;;;;;;;4.60;1.10;;;13.50;99.90;;;;;;5051206;28;20186;-87
2023/11/02 07:18:50;;;;;;;5.23;1.17;;;13.60;1.00;;;;;;5053382;28;20448;-86
2023/11/02 07:21:15;;;;;;;3.00;1.27;;;13.70;99.90;;;;;;5054203;28;20182;-86
2023/11/02 07:23:41;;;;;;;2.33;1.27;;;13.70;99.90;;;;;;5044371;28;20289;-86
2023/11/02 07:26:09;;;;;;;2.10;0.77;;;13.70;10.20;;;;;;5049054;28;20635;-87
2023/11/02 07:28:35;;;;;;;4.20;0.93;;;13.80;1.00;;;;;;5036119;28;20261;-87
2023/11/02 07:31:02;;;;;;;3.10;1.00;;;13.90;1.00;;;;;;5054415;28;20494;-85
2023/11/02 07:33:28;;;;;;;3.40;1.40;;;13.90;1.00;;;;;;5055618;28;20784;-85
2023/11/02 07:35:53;;;;;;;5.80;1.87;;;13.90;1.00;;;;;;5030085;28;20445;-86
2023/11/02 07:38:19;;;;;;;3.87;1.57;;;14.00;1.00;;;;;;5046926;28;20221;-87
2023/11/02 07:40:45;;;;;;;2.43;1.40;;;14.00;1.00;;;;;;5062969;28;20192;-87
2023/11/02 07:43:11;;;;;;;3.73;1.00;;;14.00;1.00;;;;;;5029298;28;20205;-86
2023/11/02 07:45:36;;;;;;;3.83;1.23;;;14.00;1.00;;;;;;5036940;28;20433;-87
2023/11/02 07:48:02;;;;;;;4.43;1.20;;;14.00;1.00;;;;;;5057258;28;20551;-86
2023/11/02 07:50:28;;;;;;;4.53;1.40;;;14.10;99.90;;;;;;5050822;28;20216;-87
2023/11/02 07:52:53;;;;;;;3.10;1.07;;;14.10;99.90;;;;;;5052930;28;20440;-86
2023/11/02 07:55:19;;;;;;;1.53;0.80;;;14.20;99.90;;;;;;5044074;28;20552;-85
2023/11/02 07:57:45;;;;;;;3.10;1.30;;;14.30;99.90;;;;;;5056061;28;20702;-87
2023/11/02 08:00:11;;;;;;;5.23;0.97;;;14.30;99.90;;;;;;5056900;28;20269;-87
2023/11/02 08:02:36;;;;;;;4.60;0.97;;;14.50;99.90;;;;;;5058735;28;20198;-87
2023/11/02 08:05:03;;;;;;;4.13;1.40;;;14.60;99.90;;;;;;5052358;28;20439;-87
2023/11/02 08:07:29;;;;;;;2.53;1.10;;;14.60;58.90;;;;;;5052661;28;20200;-86
2023/11/02 08:09:54;;;;;;;2.87;0.97;;;14.60;43.50;;;;;;5053109;28;20420;-85
2023/11/02 08:12:20;;;;;;;2.10;1.00;;;14.60;55.00;;;;;;5033932;28;20186;-84
2023/11/02 08:14:46;;;;;;;4.97;1.17;;;14.50;6.20;;;;;;5036562;28;20186;-85
2023/11/02 08:17:17;;;;;;;7.17;1.20;;;14.50;19.00;;;;;;5032874;28;20437;-86
2023/11/02 08:19:44;;;;;;;7.10;1.13;;;14.50;7.70;;;;;;5059419;28;20856;-86
2023/11/02 08:22:10;;;;;;;2.57;1.00;;;14.60;3.00;;;;;;5034175;28;20440;-85
2023/11/02 08:24:37;;;;;;;3.93;1.20;;;14.90;1.00;;;;;;5050889;28;20467;-83
2023/11/02 08:27:05;;;;;;;3.40;1.10;;;15.00;1.00;;;;;;5051929;28;20629;-85
2023/11/02 08:29:31;;;;;;;2.80;0.90;;;15.30;1.00;;;;;;5049387;28;20452;-84
2023/11/02 08:31:59;;;;;;;2.83;1.00;;;17.80;1.00;;;;;;5048645;28;20432;-84
2023/11/02 08:34:25;;;;;;;3.60;1.20;;;20.80;99.90;;;;;;5034063;28;20463;-85
2023/11/02 08:36:50;;;;;;;1.97;0.83;;;22.90;99.90;;;;;;5032104;28;20433;-82
2023/11/02 08:39:17;;;;;;;5.43;1.57;;;24.40;99.90;;;;;;5049075;28;20215;-85
2023/11/02 08:41:43;;;;;;;5.60;1.10;;;24.70;99.90;;;;;;5051935;28;20242;-84
2023/11/02 08:44:08;;;;;;;2.77;1.10;;;24.20;99.90;;;;;;5053176;28;20463;-85
2023/11/02 08:46:38;;;;;;;4.20;1.10;;;24.20;99.90;;;;;;5051763;28;20178;-84
2023/11/02 08:49:04;;;;;;;2.77;1.30;;;23.80;99.90;;;;;;5031628;28;20841;-83
2023/11/02 08:51:31;;;;;;;3.03;0.90;;;22.50;99.90;;;;;;5052010;28;20436;-84
2023/11/02 08:53:56;;;;;;;4.80;1.17;;;21.90;99.90;;;;;;5047445;28;20748;-83
2023/11/02 08:56:22;;;;;;;8.97;1.30;;;20.90;99.90;;;;;;5047556;28;20432;-83
2023/11/02 08:58:49;;;;;;;2.37;1.10;;;20.00;99.90;;;;;;5056409;28;20255;-83
2023/11/02 09:01:23;;;;;;;4.03;0.77;;;19.10;99.90;;;;;;5057216;28;20601;-83
2023/11/02 09:03:53;;;;;;;4.50;0.93;;;18.40;99.90;;;;;;5060788;28;20843;-83
2023/11/02 09:06:20;;;;;;;3.23;1.20;;;17.80;99.90;;;;;;5057277;28;20432;-83
2023/11/02 09:08:46;;;;;;;6.40;1.20;;;17.50;99.90;;;;;;5060462;28;20841;-84
2023/11/02 09:11:14;;;;;;;4.20;1.03;;;17.30;99.90;;;;;;5056517;28;20448;-82
2023/11/02 09:13:39;;;;;;;3.60;1.23;;;17.10;99.90;;;;;;5060527;28;20475;-83
2023/11/02 09:16:05;;;;;;;2.27;0.90;;;16.90;99.90;;;;;;5060048;28;20512;-82
2023/11/02 09:18:31;;;;;;;4.50;1.10;;;16.90;99.90;;;;;;5059134;28;20210;-83
2023/11/02 09:20:56;;;;;;;3.87;1.10;;;16.80;99.90;;;;;;5060499;28;20432;-82
2023/11/02 09:23:22;;;;;;;8.53;1.90;;;16.70;99.90;;;;;;5060011;28;20197;-82
2023/11/02 09:25:48;;;;;;;3.83;1.00;;;16.70;99.90;;;;;;5059152;28;20197;-83
2023/11/02 09:28:15;;;;;;;6.80;1.57;;;16.70;99.90;;;;;;5059330;28;20229;-82
2023/11/02 09:30:45;;;;;;;4.17;1.37;;;16.70;99.90;;;;;;5038239;28;20440;-84
2023/11/02 09:33:12;;;;;;;5.90;1.20;;;16.60;99.90;;;;;;5058130;28;20464;-83
2023/11/02 09:35:38;;;;;;;4.33;1.20;;;16.70;99.90;;;;;;5059807;28;22392;-84
2023/11/02 09:38:04;;;;;;;3.20;1.13;;;16.80;99.90;;;;;;5059299;28;20504;-84
2023/11/02 09:40:32;;;;;;;2.83;1.20;;;16.70;99.90;;;;;;5037269;28;20428;-84
2023/11/02 09:43:02;;;;;;;5.90;1.77;;;16.60;99.90;;;;;;5057391;28;20471;-84
2023/11/02 09:45:29;;;;;;;7.03;1.07;;;16.60;99.90;;;;;;5036657;28;20433;-85
2023/11/02 09:47:56;;;;;;;9.00;1.17;;;16.60;99.90;;;;;;5040310;28;20510;-83
2023/11/02 09:50:22;;;;;;;5.63;1.47;;;16.80;99.90;;;;;;5039233;28;20440;-83
2023/11/02 09:52:48;;;;;;;8.17;0.80;;;16.90;99.90;;;;;;5056701;28;20475;-85
2023/11/02 09:55:14;;;;;;;3.43;1.50;;;16.90;99.90;;;;;;5054776;28;20428;-83
2023/11/02 09:57:41;;;;;;;4.70;2.00;;;16.90;99.90;;;;;;5053484;28;20196;-83
2023/11/02 10:00:08;;;;;;;5.57;1.60;;;16.90;99.90;;;;;;5052797;28;20436;-84
2023/11/02 10:02:34;;;;;;;3.33;1.13;;;16.80;99.90;;;;;;5036362;28;20823;-83
2023/11/02 10:05:00;;;;;;;6.47;1.20;;;16.70;99.90;;;;;;5054055;28;20452;-84
2023/11/02 10:07:26;;;;;;;4.77;1.13;;;16.70;99.90;;;;;;5037654;28;20437;-83
2023/11/02 10:09:52;;;;;;;5.37;1.10;;;16.80;99.90;;;;;;5053306;28;20440;-84
2023/11/02 10:12:18;;;;;;;5.63;1.10;;;16.80;99.90;;;;;;5054859;28;20186;-84
2023/11/02 10:14:44;;;;;;;4.33;1.37;;;16.90;99.90;;;;;;5054680;28;20475;-84
2023/11/02 10:17:13;;;;;;;7.73;1.63;;;16.90;99.90;;;;;;5053217;28;20844;-83
2023/11/02 10:19:41;;;;;;;6.17;1.33;;;16.90;99.90;;;;;;5053049;28;20289;-84
2023/11/02 10:22:07;;;;;;;6.63;1.43;;;16.90;99.90;;;;;;5054505;28;20527;-84
2023/11/02 10:24:33;;;;;;;4.57;1.60;;;17.00;99.90;;;;;;5055564;28;20487;-84
2023/11/02 10:27:01;;;;;;;4.57;1.13;;;17.00;99.90;;;;;;5037438;28;20186;-83
2023/11/02 10:29:28;;;;;;;5.33;1.50;;;17.20;99.90;;;;;;5053567;28;20452;-84
2023/11/02 10:31:56;;;;;;;6.07;1.87;;;17.60;99.90;;;;;;5056093;28;20448;-84
2023/11/02 10:34:23;;;;;;;9.00;1.40;;;17.90;99.90;;;;;;5052004;28;20486;-83
2023/11/02 10:36:50;;;;;;;9.07;2.30;;;18.00;99.90;;;;;;5055512;28;21153;-84
2023/11/02 10:39:20;;;;;;;5.30;1.77;;;18.10;99.90;;;;;;5054172;28;20499;-84
2023/11/02 10:42:00;;;;;;;8.17;1.93;;;18.10;99.90;;;;;;5052953;28;20429;-84
2023/11/02 10:44:33;;;;;;;4.40;1.50;;;18.10;99.90;;;;;;5057203;28;20574;-84
2023/11/02 10:47:01;;;;;;;3.43;1.00;;;18.30;99.90;;;;;;5035464;28;20521;-84
2023/11/02 10:49:38;;;;;;;6.03;1.63;;;19.40;99.90;;;;;;5051690;28;20463;-84
2023/11/02 10:52:08;;;;;;;5.77;1.40;;;21.20;99.90;;;;;;5054167;28;20941;-84
2023/11/02 10:54:56;;;;;;;4.70;1.17;;;23.10;99.90;;;;;;5052925;28;20440;-85
2023/11/02 10:57:24;;;;;;;5.23;1.20;;;24.30;99.90;;;;;;5052527;28;20465;-85
2023/11/02 10:59:50;;;;;;;6.63;1.90;;;25.40;99.90;;;;;;5051919;28;20807;-85
2023/11/02 11:02:17;;;;;;;6.80;1.50;;;25.90;99.90;;;;;;5044589;28;20448;-86
2023/11/02 11:04:44;;;;;;;4.30;1.20;;;26.30;99.90;;;;;;5050348;28;20218;-85
2023/11/02 11:07:11;;;;;;;5.07;1.10;;;26.80;99.90;;;;;;5049914;28;20469;-86
2023/11/02 11:09:38;;;;;;;4.63;1.40;;;27.20;99.90;;;;;;5052405;28;20459;-85
2023/11/02 11:12:04;;;;;;;6.33;1.30;;;27.40;99.90;;;;;;5052186;28;20511;-84
2023/11/02 11:14:31;;;;;;;8.17;2.03;;;27.60;99.90;;;;;;5051410;28;20443;-86
2023/11/02 11:16:58;;;;;;;6.60;1.93;;;27.70;99.90;;;;;;5050769;28;20444;-85
2023/11/02 11:19:24;;;;;;;3.60;1.43;;;27.70;99.90;;;;;;5034269;28;20453;-85
2023/11/02 11:21:53;;;;;;;3.90;1.73;;;27.40;99.90;;;;;;5052240;28;20428;-84
2023/11/02 11:24:21;;;;;;;4.60;1.67;;;27.00;99.90;;;;;;5051661;28;20449;-84
2023/11/02 11:26:53;;;;;;;3.43;1.20;;;27.10;99.90;;;;;;5050753;28;20436;-86
2023/11/02 11:29:36;;;;;;;7.90;1.30;;;27.10;99.90;;;;;;5047920;28;20558;-84
2023/11/02 11:32:03;;;;;;;5.47;1.20;;;27.00;99.90;;;;;;5048846;28;20514;-86
2023/11/02 11:34:54;;;;;;;3.43;2.00;;;27.20;99.90;;;;;;5034035;28;20782;-86
2023/11/02 11:40:20;;;;;;;7.83;1.30;;;26.90;99.90;;;;;;5049960;28;20439;-83
2023/11/02 11:42:52;;;;;;;;;;;26.30;99.90;;;;;;5051327;28;20804;-85
2023/11/02 11:45:46;;;;;;;;;;;25.90;99.90;;;;;;5052979;28;19917;-85
2023/11/02 11:48:32;;;;;;;8.00;1.80;;;25.40;99.90;;;;;;5050741;28;20462;-84
2023/11/02 11:50:58;;;;;;;7.83;1.20;;;25.00;99.90;;;;;;5031346;28;20179;-85
2023/11/02 11:53:24;;;;;;;7.17;1.80;;;25.30;99.90;;;;;;5049765;28;20472;-85
2023/11/02 11:55:52;;;;;;;2.97;1.03;;;25.70;99.90;;;;;;5053250;28;20421;-85
2023/11/02 11:58:37;;;;;;;7.93;1.50;;;25.80;99.90;;;;;;5053133;28;20851;-84
2023/11/02 12:01:02;;;;;;;6.70;1.53;;;25.90;99.90;;;;;;5029398;28;20509;-85
2023/11/02 12:03:36;;;;;;;8.53;1.97;;;26.10;99.90;;;;;;5047632;28;20542;-84
2023/11/02 12:06:03;;;;;;;6.03;1.80;;;26.30;99.90;;;;;;5047374;28;20564;-84
2023/11/02 12:08:31;;;;;;;5.20;1.47;;;26.40;99.90;;;;;;5049445;28;20478;-85
2023/11/02 12:10:57;;;;;;;;;;;25.70;99.90;;;;;;5032113;28;20506;-85
2023/11/02 12:13:24;;;;;;;;;;;25.90;99.90;;;;;;5032365;28;19924;-85
2023/11/02 12:15:50;;;;;;;;;;;25.90;99.90;;;;;;5052495;28;19913;-85
2023/11/02 12:18:16;;;;;;;;;;;25.90;99.90;;;;;;5053073;28;19905;-85
2023/11/02 12:20:44;;;;;;;;;;;25.10;99.90;;;;;;5048046;28;19940;-84
2023/11/02 12:23:11;;;;;;;;;;;24.80;99.90;;;;;;5052660;28;19924;-84
2023/11/02 12:25:37;;;;;;;;;;;24.80;99.90;;;;;;5049458;28;19998;-86
2023/11/02 12:28:11;;;;;;;;;;;24.90;99.90;;;;;;5033152;28;20394;-83
2023/11/02 12:30:43;;;;;;;;;;;25.00;99.90;;;;;;5046977;28;20267;-84
2023/11/02 12:33:09;;;;;;;;;;;24.90;99.90;;;;;;5051824;28;19920;-85
2023/11/02 12:35:34;;;;;;;;;;;24.80;99.90;;;;;;5043159;28;19913;-85
2023/11/02 12:38:00;;;;;;;;;;;24.80;99.90;;;;;;5047712;28;20927;-85
2023/11/02 12:40:26;;;;;;;;;;;24.60;99.90;;;;;;5048590;28;19916;-85
2023/11/02 12:42:53;;;;;;;;;;;23.70;99.90;;;;;;5050245;28;19909;-86
2023/11/02 12:45:22;;;;;;;;;;;23.10;99.90;;;;;;5034286;28;20298;-85
2023/11/02 12:47:48;;;;;;;;;;;22.60;99.90;;;;;;5046453;28;19917;-84
2023/11/02 12:50:40;;;;;;;;;;;22.40;99.90;;;;;;5035690;28;19909;-85
2023/11/02 12:53:06;;;;;;;;;;;22.00;99.90;;;;;;5050595;28;19939;-85
2023/11/02 12:55:45;;;;;;;;;;;21.90;99.90;;;;;;5052622;28;19913;-85
2023/11/02 12:58:14;;;;;;;;;;;21.70;99.90;;;;;;5050165;28;19912;-85
2023/11/02 13:00:39;;;;;;;;;;;21.40;99.90;;;;;;5052052;28;19935;-85
2023/11/02 13:03:12;;;;;;;;;;;21.30;99.90;;;;;;5050230;28;19913;-84
2023/11/02 13:05:37;;;;;;;;;;;21.50;99.90;;;;;;5031772;28;19908;-85
2023/11/02 13:08:03;;;;;;;;;;;22.20;99.90;;;;;;5051769;28;19981;-85
2023/11/02 13:10:29;;;;;;;;;;;22.30;99.90;;;;;;5047012;28;20457;-85
2023/11/02 13:12:55;;;;;;;;;;;22.60;99.90;;;;;;5047286;28;19995;-84
2023/11/02 13:15:21;;;;;;;;;;;22.50;99.90;;;;;;5048787;28;19916;-83